sensor_id;sensor_type;location;lat;lon;timestamp;pressure;altitude;pressure_sealevel;temperature;humidity
23427;BME280;41148;45.420;10.952;2024-03-22T00:01:41;101267.88;;;11.82;100.00
23427;BME280;41148;45.420;10.952;2024-03-22T00:04:07;101268.75;;;11.82;100.00
23427;BME280;41148;45.420;10.952;2024-03-22T00:06:33;101270.47;;;11.85;100.00
23427;BME280;41148;45.420;10.952;2024-03-22T00:08:59;101274.19;;;11.76;100.00
23427;BME280;41148;45.420;10.952;2024-03-22T00:11:26;101271.53;;;11.76;100.00
23427;BME280;41148;45.420;10.952;2024-03-22T00:13:52;101272.44;;;11.75;100.00
23427;BME280;41148;45.420;10.952;2024-03-22T00:16:18;101272.44;;;11.75;100.00
23427;BME280;41148;45.420;10.952;2024-03-22T00:18:44;101267.06;;;11.76;100.00
23427;BME280;41148;45.420;10.952;2024-03-22T00:21:10;101270.78;;;11.71;100.00
23427;BME280;41148;45.420;10.952;2024-03-22T00:23:37;101276.19;;;11.68;100.00
23427;BME280;41148;45.420;10.952;2024-03-22T00:26:04;101271.72;;;11.68;100.00
23427;BME280;41148;45.420;10.952;2024-03-22T00:28:31;101277.75;;;11.76;100.00
23427;BME280;41148;45.420;10.952;2024-03-22T00:30:57;101279.44;;;11.82;100.00
23427;BME280;41148;45.420;10.952;2024-03-22T00:33:24;101277.50;;;11.89;100.00
23427;BME280;41148;45.420;10.952;2024-03-22T00:35:50;101278.28;;;11.92;100.00
23427;BME280;41148;45.420;10.952;2024-03-22T00:38:17;101283.34;;;12.04;100.00
23427;BME280;41148;45.420;10.952;2024-03-22T00:40:46;101285.06;;;12.07;100.00
23427;BME280;41148;45.420;10.952;2024-03-22T00:43:12;101273.50;;;12.07;100.00
23427;BME280;41148;45.420;10.952;2024-03-22T00:45:38;101274.31;;;12.10;100.00
23427;BME280;41148;45.420;10.952;2024-03-22T00:48:05;101280.63;;;12.06;100.00
23427;BME280;41148;45.420;10.952;2024-03-22T00:50:31;101279.88;;;12.01;100.00
23427;BME280;41148;45.420;10.952;2024-03-22T00:53:00;101280.66;;;12.04;100.00
23427;BME280;41148;45.420;10.952;2024-03-22T00:55:29;101287.78;;;12.04;100.00
23427;BME280;41148;45.420;10.952;2024-03-22T00:57:55;101287.84;;;12.02;100.00
23427;BME280;41148;45.420;10.952;2024-03-22T01:00:22;101289.72;;;11.99;100.00
23427;BME280;41148;45.420;10.952;2024-03-22T01:02:50;101286.03;;;12.03;100.00
23427;BME280;41148;45.420;10.952;2024-03-22T01:05:16;101286.41;;;11.89;100.00
23427;BME280;41148;45.420;10.952;2024-03-22T01:07:43;101284.63;;;11.88;100.00
23427;BME280;41148;45.420;10.952;2024-03-22T01:10:10;101289.81;;;11.94;100.00
23427;BME280;41148;45.420;10.952;2024-03-22T01:12:37;101287.00;;;12.00;100.00
23427;BME280;41148;45.420;10.952;2024-03-22T01:15:05;101293.69;;;11.81;100.00
23427;BME280;41148;45.420;10.952;2024-03-22T01:17:32;101289.06;;;11.89;100.00
23427;BME280;41148;45.420;10.952;2024-03-22T01:19:59;101286.31;;;11.92;100.00
23427;BME280;41148;45.420;10.952;2024-03-22T01:22:25;101289.22;;;11.82;100.00
23427;BME280;41148;45.420;10.952;2024-03-22T01:24:52;101298.91;;;11.87;100.00
23427;BME280;41148;45.420;10.952;2024-03-22T01:27:19;101297.94;;;11.90;100.00
23427;BME280;41148;45.420;10.952;2024-03-22T01:29:46;101289.97;;;11.88;100.00
23427;BME280;41148;45.420;10.952;2024-03-22T01:32:13;101294.88;;;11.66;100.00
23427;BME280;41148;45.420;10.952;2024-03-22T01:34:40;101291.16;;;11.73;100.00
23427;BME280;41148;45.420;10.952;2024-03-22T01:37:07;101289.28;;;11.77;100.00
23427;BME280;41148;45.420;10.952;2024-03-22T01:39:33;101294.66;;;11.75;100.00
23427;BME280;41148;45.420;10.952;2024-03-22T01:42:00;101295.53;;;11.78;100.00
23427;BME280;41148;45.420;10.952;2024-03-22T01:44:27;101291.50;;;11.60;100.00
23427;BME280;41148;45.420;10.952;2024-03-22T01:46:53;101283.75;;;11.47;100.00
23427;BME280;41148;45.420;10.952;2024-03-22T01:49:19;101288.91;;;11.55;100.00
23427;BME280;41148;45.420;10.952;2024-03-22T01:51:46;101281.00;;;11.52;100.00
23427;BME280;41148;45.420;10.952;2024-03-22T01:54:12;101283.41;;;11.63;100.00
23427;BME280;41148;45.420;10.952;2024-03-22T01:56:40;101285.50;;;11.50;100.00
23427;BME280;41148;45.420;10.952;2024-03-22T01:59:06;101286.28;;;11.54;100.00
23427;BME280;41148;45.420;10.952;2024-03-22T02:01:32;101280.06;;;11.53;100.00
23427;BME280;41148;45.420;10.952;2024-03-22T02:03:59;101279.28;;;11.48;100.00
23427;BME280;41148;45.420;10.952;2024-03-22T02:06:25;101282.31;;;11.33;100.00
23427;BME280;41148;45.420;10.952;2024-03-22T02:08:51;101275.91;;;11.41;100.00
23427;BME280;41148;45.420;10.952;2024-03-22T02:11:18;101271.44;;;11.42;100.00
23427;BME280;41148;45.420;10.952;2024-03-22T02:13:45;101276.84;;;11.39;100.00
23427;BME280;41148;45.420;10.952;2024-03-22T02:16:11;101271.63;;;11.33;100.00
23427;BME280;41148;45.420;10.952;2024-03-22T02:18:38;101285.09;;;11.27;100.00
23427;BME280;41148;45.420;10.952;2024-03-22T02:21:08;101275.69;;;11.10;100.00
23427;BME280;41148;45.420;10.952;2024-03-22T02:23:35;101281.91;;;11.09;100.00
23427;BME280;41148;45.420;10.952;2024-03-22T02:26:02;101279.84;;;11.24;100.00
23427;BME280;41148;45.420;10.952;2024-03-22T02:28:29;101270.16;;;11.20;100.00
23427;BME280;41148;45.420;10.952;2024-03-22T02:30:55;101281.00;;;11.09;100.00
23427;BME280;41148;45.420;10.952;2024-03-22T02:33:21;101287.19;;;11.12;100.00
23427;BME280;41148;45.420;10.952;2024-03-22T02:35:48;101286.09;;;11.23;100.00
23427;BME280;41148;45.420;10.952;2024-03-22T02:38:14;101285.94;;;11.29;100.00
23427;BME280;41148;45.420;10.952;2024-03-22T02:40:42;101282.19;;;11.39;100.00
23427;BME280;41148;45.420;10.952;2024-03-22T02:43:08;101283.31;;;11.27;100.00
23427;BME280;41148;45.420;10.952;2024-03-22T02:45:35;101279.16;;;11.14;100.00
23427;BME280;41148;45.420;10.952;2024-03-22T02:48:01;101274.50;;;11.24;100.00
23427;BME280;41148;45.420;10.952;2024-03-22T02:50:27;101278.16;;;11.18;100.00
23427;BME280;41148;45.420;10.952;2024-03-22T02:52:53;101275.69;;;11.09;100.00
23427;BME280;41148;45.420;10.952;2024-03-22T02:55:19;101276.47;;;11.14;100.00
23427;BME280;41148;45.420;10.952;2024-03-22T02:57:46;101271.16;;;11.14;100.00
23427;BME280;41148;45.420;10.952;2024-03-22T03:00:12;101270.22;;;11.15;100.00
23427;BME280;41148;45.420;10.952;2024-03-22T03:02:38;101263.03;;;11.20;100.00
23427;BME280;41148;45.420;10.952;2024-03-22T03:05:05;101265.94;;;11.08;100.00
23427;BME280;41148;45.420;10.952;2024-03-22T03:07:32;101268.66;;;11.05;100.00
23427;BME280;41148;45.420;10.952;2024-03-22T03:09:58;101270.53;;;11.01;100.00
23427;BME280;41148;45.420;10.952;2024-03-22T03:12:24;101268.63;;;11.06;100.00
23427;BME280;41148;45.420;10.952;2024-03-22T03:14:51;101265.97;;;11.06;100.00
23427;BME280;41148;45.420;10.952;2024-03-22T03:17:17;101262.69;;;10.94;100.00
23427;BME280;41148;45.420;10.952;2024-03-22T03:19:44;101265.47;;;10.87;100.00
23427;BME280;41148;45.420;10.952;2024-03-22T03:22:10;101266.19;;;10.96;100.00
23427;BME280;41148;45.420;10.952;2024-03-22T03:24:36;101270.75;;;10.89;100.00
23427;BME280;41148;45.420;10.952;2024-03-22T03:27:03;101285.94;;;10.85;100.00
23427;BME280;41148;45.420;10.952;2024-03-22T03:29:29;101275.56;;;10.72;100.00
23427;BME280;41148;45.420;10.952;2024-03-22T03:31:56;101273.06;;;10.61;100.00
23427;BME280;41148;45.420;10.952;2024-03-22T03:34:22;101273.19;;;10.56;100.00
23427;BME280;41148;45.420;10.952;2024-03-22T03:36:48;101271.47;;;10.54;100.00
23427;BME280;41148;45.420;10.952;2024-03-22T03:39:15;101273.97;;;10.62;100.00
23427;BME280;41148;45.420;10.952;2024-03-22T03:41:41;101273.19;;;10.56;100.00
23427;BME280;41148;45.420;10.952;2024-03-22T03:44:07;101277.53;;;10.60;100.00
23427;BME280;41148;45.420;10.952;2024-03-22T03:46:34;101277.53;;;10.60;100.00
23427;BME280;41148;45.420;10.952;2024-03-22T03:49:00;101272.44;;;10.48;100.00
23427;BME280;41148;45.420;10.952;2024-03-22T03:51:26;101278.53;;;10.55;100.00
23427;BME280;41148;45.420;10.952;2024-03-22T03:53:53;101282.25;;;10.46;100.00
23427;BME280;41148;45.420;10.952;2024-03-22T03:56:19;101282.34;;;10.40;100.00
23427;BME280;41148;45.420;10.952;2024-03-22T03:58:46;101289.56;;;10.35;100.00
23427;BME280;41148;45.420;10.952;2024-03-22T04:01:12;101285.13;;;10.32;100.00
23427;BME280;41148;45.420;10.952;2024-03-22T04:03:38;101281.66;;;10.29;100.00
23427;BME280;41148;45.420;10.952;2024-03-22T04:06:05;101280.03;;;10.19;100.00
23427;BME280;41148;45.420;10.952;2024-03-22T04:08:31;101273.03;;;10.12;100.00
23427;BME280;41148;45.420;10.952;2024-03-22T04:10:58;101279.38;;;10.06;100.00
23427;BME280;41148;45.420;10.952;2024-03-22T04:13:24;101272.38;;;9.99;100.00
23427;BME280;41148;45.420;10.952;2024-03-22T04:15:51;101274.03;;;10.06;100.00
23427;BME280;41148;45.420;10.952;2024-03-22T04:18:17;101272.16;;;10.11;100.00
23427;BME280;41148;45.420;10.952;2024-03-22T04:20:57;101273.00;;;10.15;100.00
23427;BME280;41148;45.420;10.952;2024-03-22T04:23:27;101275.50;;;10.27;100.00
23427;BME280;41148;45.420;10.952;2024-03-22T04:25:57;101280.00;;;10.20;100.00
23427;BME280;41148;45.420;10.952;2024-03-22T04:28:25;101276.59;;;10.11;100.00
23427;BME280;41148;45.420;10.952;2024-03-22T04:30:58;101266.91;;;10.08;100.00
23427;BME280;41148;45.420;10.952;2024-03-22T04:33:25;101278.38;;;10.12;100.00
23427;BME280;41148;45.420;10.952;2024-03-22T04:35:51;101275.63;;;10.16;100.00
23427;BME280;41148;45.420;10.952;2024-03-22T04:38:17;101279.34;;;10.08;100.00
23427;BME280;41148;45.420;10.952;2024-03-22T04:40:44;101274.19;;;9.97;100.00
23427;BME280;41148;45.420;10.952;2024-03-22T04:43:10;101281.34;;;9.92;100.00
23427;BME280;41148;45.420;10.952;2024-03-22T04:45:36;101273.34;;;9.93;100.00
23427;BME280;41148;45.420;10.952;2024-03-22T04:48:03;101289.28;;;9.96;100.00
23427;BME280;41148;45.420;10.952;2024-03-22T04:50:30;101283.94;;;9.98;100.00
23427;BME280;41148;45.420;10.952;2024-03-22T04:52:57;101281.09;;;10.09;100.00
23427;BME280;41148;45.420;10.952;2024-03-22T04:55:23;101277.69;;;9.99;100.00
23427;BME280;41148;45.420;10.952;2024-03-22T04:57:51;101282.13;;;10.00;100.00
23427;BME280;41148;45.420;10.952;2024-03-22T05:00:17;101278.59;;;9.98;100.00
23427;BME280;41148;45.420;10.952;2024-03-22T05:02:43;101285.56;;;10.07;100.00
23427;BME280;41148;45.420;10.952;2024-03-22T05:05:10;101279.53;;;9.95;100.00
23427;BME280;41148;45.420;10.952;2024-03-22T05:07:37;101275.94;;;9.98;99.95
23427;BME280;41148;45.420;10.952;2024-03-22T05:10:03;101276.84;;;9.97;99.73
23427;BME280;41148;45.420;10.952;2024-03-22T05:12:30;101282.31;;;9.88;99.57
23427;BME280;41148;45.420;10.952;2024-03-22T05:14:56;101283.38;;;9.74;99.49
23427;BME280;41148;45.420;10.952;2024-03-22T05:17:22;101284.56;;;9.55;98.99
23427;BME280;41148;45.420;10.952;2024-03-22T05:19:49;101281.75;;;9.64;98.50
23427;BME280;41148;45.420;10.952;2024-03-22T05:22:15;101277.31;;;9.68;97.90
23427;BME280;41148;45.420;10.952;2024-03-22T05:24:42;101276.19;;;9.81;98.09
23427;BME280;41148;45.420;10.952;2024-03-22T05:27:09;101277.13;;;9.79;97.96
23427;BME280;41148;45.420;10.952;2024-03-22T05:29:35;101287.81;;;9.74;97.23
23427;BME280;41148;45.420;10.952;2024-03-22T05:32:02;101278.97;;;9.75;97.92
23427;BME280;41148;45.420;10.952;2024-03-22T05:34:29;101282.38;;;9.83;97.13
23427;BME280;41148;45.420;10.952;2024-03-22T05:36:56;101281.59;;;9.77;97.02
23427;BME280;41148;45.420;10.952;2024-03-22T05:39:22;101287.69;;;9.83;96.69
23427;BME280;41148;45.420;10.952;2024-03-22T05:41:48;101294.84;;;9.80;97.58
23427;BME280;41148;45.420;10.952;2024-03-22T05:44:15;101283.38;;;9.76;98.06
23427;BME280;41148;45.420;10.952;2024-03-22T05:46:41;101297.44;;;9.86;97.47
23427;BME280;41148;45.420;10.952;2024-03-22T05:49:07;101300.09;;;9.86;97.58
23427;BME280;41148;45.420;10.952;2024-03-22T05:51:33;101300.19;;;9.78;97.91
23427;BME280;41148;45.420;10.952;2024-03-22T05:54:00;101301.03;;;9.82;97.05
23427;BME280;41148;45.420;10.952;2024-03-22T05:56:26;101299.22;;;9.84;96.62
23427;BME280;41148;45.420;10.952;2024-03-22T05:58:53;101296.50;;;9.88;96.41
23427;BME280;41148;45.420;10.952;2024-03-22T06:01:19;101310.38;;;10.09;95.52
23427;BME280;41148;45.420;10.952;2024-03-22T06:03:45;101303.13;;;10.18;93.57
23427;BME280;41148;45.420;10.952;2024-03-22T06:06:11;101303.00;;;10.27;93.59
23427;BME280;41148;45.420;10.952;2024-03-22T06:08:38;101304.66;;;10.35;92.33
23427;BME280;41148;45.420;10.952;2024-03-22T06:11:09;101305.56;;;10.34;91.97
23427;BME280;41148;45.420;10.952;2024-03-22T06:13:35;101298.16;;;10.49;91.27
23427;BME280;41148;45.420;10.952;2024-03-22T06:16:02;101296.25;;;10.57;91.05
23427;BME280;41148;45.420;10.952;2024-03-22T06:18:29;101299.06;;;10.48;90.09
23427;BME280;41148;45.420;10.952;2024-03-22T06:20:56;101306.88;;;10.59;89.17
23427;BME280;41148;45.420;10.952;2024-03-22T06:23:22;101303.09;;;10.71;88.48
23427;BME280;41148;45.420;10.952;2024-03-22T06:25:52;101301.66;;;10.99;87.68
23427;BME280;41148;45.420;10.952;2024-03-22T06:28:18;101306.81;;;11.08;86.80
23427;BME280;41148;45.420;10.952;2024-03-22T06:30:45;101306.41;;;11.28;86.90
23427;BME280;41148;45.420;10.952;2024-03-22T06:33:11;101307.00;;;11.42;85.76
23427;BME280;41148;45.420;10.952;2024-03-22T06:35:37;101308.34;;;11.62;85.37
23427;BME280;41148;45.420;10.952;2024-03-22T06:38:03;101306.28;;;11.74;84.21
23427;BME280;41148;45.420;10.952;2024-03-22T06:40:30;101305.91;;;11.91;84.35
23427;BME280;41148;45.420;10.952;2024-03-22T06:42:56;101310.91;;;12.05;84.21
23427;BME280;41148;45.420;10.952;2024-03-22T06:45:23;101300.78;;;12.19;82.87
23427;BME280;41148;45.420;10.952;2024-03-22T06:47:50;101304.03;;;12.32;82.98
23427;BME280;41148;45.420;10.952;2024-03-22T06:50:17;101305.31;;;12.51;81.81
23427;BME280;41148;45.420;10.952;2024-03-22T06:52:53;101302.09;;;12.71;81.42
23427;BME280;41148;45.420;10.952;2024-03-22T06:55:20;101303.34;;;12.90;79.83
23427;BME280;41148;45.420;10.952;2024-03-22T06:57:47;101301.25;;;13.02;78.48
23427;BME280;41148;45.420;10.952;2024-03-22T07:00:13;101310.47;;;13.24;78.39
23427;BME280;41148;45.420;10.952;2024-03-22T07:02:40;101307.88;;;13.51;78.44
23427;BME280;41148;45.420;10.952;2024-03-22T07:05:06;101303.69;;;13.71;77.30
23427;BME280;41148;45.420;10.952;2024-03-22T07:07:34;101310.56;;;14.07;75.95
23427;BME280;41148;45.420;10.952;2024-03-22T07:10:01;101302.91;;;14.50;73.43
23427;BME280;41148;45.420;10.952;2024-03-22T07:12:28;101297.97;;;14.63;71.87
23427;BME280;41148;45.420;10.952;2024-03-22T07:14:55;101311.38;;;14.63;71.93
23427;BME280;41148;45.420;10.952;2024-03-22T07:17:21;101305.34;;;14.56;72.47
23427;BME280;41148;45.420;10.952;2024-03-22T07:19:50;101302.03;;;14.75;71.22
23427;BME280;41148;45.420;10.952;2024-03-22T07:22:17;101302.41;;;15.37;67.92
23427;BME280;41148;45.420;10.952;2024-03-22T07:24:44;101296.03;;;16.73;62.50
23427;BME280;41148;45.420;10.952;2024-03-22T07:27:11;101306.22;;;17.05;61.24
23427;BME280;41148;45.420;10.952;2024-03-22T07:29:37;101298.50;;;17.56;58.87
23427;BME280;41148;45.420;10.952;2024-03-22T07:32:03;101301.78;;;17.62;58.09
23427;BME280;41148;45.420;10.952;2024-03-22T07:34:30;101296.00;;;17.71;58.01
23427;BME280;41148;45.420;10.952;2024-03-22T07:36:56;101304.66;;;17.97;57.46
23427;BME280;41148;45.420;10.952;2024-03-22T07:39:22;101296.63;;;17.95;57.03
23427;BME280;41148;45.420;10.952;2024-03-22T07:41:49;101299.69;;;19.10;53.85
23427;BME280;41148;45.420;10.952;2024-03-22T07:44:15;101309.06;;;20.17;50.45
23427;BME280;41148;45.420;10.952;2024-03-22T07:46:43;101303.78;;;19.99;50.52
23427;BME280;41148;45.420;10.952;2024-03-22T07:49:11;101303.94;;;19.65;51.90
23427;BME280;41148;45.420;10.952;2024-03-22T07:51:37;101310.59;;;19.59;52.58
23427;BME280;41148;45.420;10.952;2024-03-22T07:54:04;101317.50;;;21.02;48.68
23427;BME280;41148;45.420;10.952;2024-03-22T07:56:30;101308.47;;;21.32;47.38
23427;BME280;41148;45.420;10.952;2024-03-22T07:58:56;101308.00;;;20.51;49.41
23427;BME280;41148;45.420;10.952;2024-03-22T08:01:23;101308.84;;;20.06;49.59
23427;BME280;41148;45.420;10.952;2024-03-22T08:03:49;101317.78;;;19.59;52.13
23427;BME280;41148;45.420;10.952;2024-03-22T08:06:15;101316.88;;;19.60;52.17
23427;BME280;41148;45.420;10.952;2024-03-22T08:08:42;101312.06;;;19.65;51.26
23427;BME280;41148;45.420;10.952;2024-03-22T08:11:08;101315.81;;;19.94;50.54
23427;BME280;41148;45.420;10.952;2024-03-22T08:13:35;101314.19;;;19.91;51.32
23427;BME280;41148;45.420;10.952;2024-03-22T08:16:01;101317.56;;;19.95;51.57
23427;BME280;41148;45.420;10.952;2024-03-22T08:18:28;101314.59;;;20.15;50.32
23427;BME280;41148;45.420;10.952;2024-03-22T08:20:55;101322.63;;;20.01;50.10
23427;BME280;41148;45.420;10.952;2024-03-22T08:23:21;101313.47;;;20.65;47.76
23427;BME280;41148;45.420;10.952;2024-03-22T08:25:49;101314.47;;;20.33;47.11
23427;BME280;41148;45.420;10.952;2024-03-22T08:28:15;101319.06;;;19.85;47.83
23427;BME280;41148;45.420;10.952;2024-03-22T08:30:44;101315.63;;;20.13;48.50
23427;BME280;41148;45.420;10.952;2024-03-22T08:33:11;101311.03;;;19.99;49.32
23427;BME280;41148;45.420;10.952;2024-03-22T08:35:40;101312.78;;;19.84;50.49
23427;BME280;41148;45.420;10.952;2024-03-22T08:38:06;101309.31;;;19.98;50.89
23427;BME280;41148;45.420;10.952;2024-03-22T08:40:39;101313.63;;;20.16;50.24
23427;BME280;41148;45.420;10.952;2024-03-22T08:43:05;101309.91;;;21.23;47.84
23427;BME280;41148;45.420;10.952;2024-03-22T08:45:33;101302.09;;;23.22;42.90
23427;BME280;41148;45.420;10.952;2024-03-22T08:47:59;101314.59;;;24.36;40.50
23427;BME280;41148;45.420;10.952;2024-03-22T08:50:26;101310.88;;;23.76;40.25
23427;BME280;41148;45.420;10.952;2024-03-22T08:52:52;101309.22;;;22.18;43.68
23427;BME280;41148;45.420;10.952;2024-03-22T08:55:18;101310.63;;;21.55;44.81
23427;BME280;41148;45.420;10.952;2024-03-22T08:57:45;101306.16;;;21.40;45.64
23427;BME280;41148;45.420;10.952;2024-03-22T09:00:11;101307.34;;;22.33;42.67
23427;BME280;41148;45.420;10.952;2024-03-22T09:02:37;101310.69;;;24.03;39.22
23427;BME280;41148;45.420;10.952;2024-03-22T09:05:04;101303.00;;;25.26;36.68
23427;BME280;41148;45.420;10.952;2024-03-22T09:07:31;101303.28;;;24.99;36.85
23427;BME280;41148;45.420;10.952;2024-03-22T09:09:57;101303.22;;;26.02;35.53
23427;BME280;41148;45.420;10.952;2024-03-22T09:12:23;101299.22;;;26.60;34.62
23427;BME280;41148;45.420;10.952;2024-03-22T09:14:50;101295.53;;;26.71;33.86
23427;BME280;41148;45.420;10.952;2024-03-22T09:17:16;101291.28;;;26.99;33.56
23427;BME280;41148;45.420;10.952;2024-03-22T09:19:42;101295.47;;;27.45;32.80
23427;BME280;41148;45.420;10.952;2024-03-22T09:22:09;101289.94;;;26.72;33.40
23427;BME280;41148;45.420;10.952;2024-03-22T09:24:35;101294.88;;;24.56;37.46
23427;BME280;41148;45.420;10.952;2024-03-22T09:27:02;101298.75;;;22.66;40.94
23427;BME280;41148;45.420;10.952;2024-03-22T09:29:35;101309.56;;;21.99;42.48
23427;BME280;41148;45.420;10.952;2024-03-22T09:32:01;101300.78;;;20.96;44.74
23427;BME280;41148;45.420;10.952;2024-03-22T09:34:28;101291.78;;;20.95;44.65
23427;BME280;41148;45.420;10.952;2024-03-22T09:36:56;101295.22;;;20.83;45.79
23427;BME280;41148;45.420;10.952;2024-03-22T09:39:22;101290.47;;;20.72;46.08
23427;BME280;41148;45.420;10.952;2024-03-22T09:41:49;101295.88;;;20.72;46.72
23427;BME280;41148;45.420;10.952;2024-03-22T09:44:18;101285.03;;;20.42;47.30
23427;BME280;41148;45.420;10.952;2024-03-22T09:46:48;101279.63;;;20.42;46.35
23427;BME280;41148;45.420;10.952;2024-03-22T09:49:16;101286.88;;;20.42;46.73
23427;BME280;41148;45.420;10.952;2024-03-22T09:51:43;101281.75;;;20.37;46.86
23427;BME280;41148;45.420;10.952;2024-03-22T09:54:12;101280.91;;;20.21;47.82
23427;BME280;41148;45.420;10.952;2024-03-22T09:56:39;101273.97;;;20.31;47.37
23427;BME280;41148;45.420;10.952;2024-03-22T09:59:05;101271.38;;;20.29;47.20
23427;BME280;41148;45.420;10.952;2024-03-22T10:01:35;101280.38;;;20.30;47.44
23427;BME280;41148;45.420;10.952;2024-03-22T10:04:20;101268.75;;;20.28;47.65
23427;BME280;41148;45.420;10.952;2024-03-22T10:06:46;101257.81;;;19.99;48.43
23427;BME280;41148;45.420;10.952;2024-03-22T10:09:13;101256.47;;;20.07;48.63
23427;BME280;41148;45.420;10.952;2024-03-22T10:11:41;101270.44;;;20.15;47.07
23427;BME280;41148;45.420;10.952;2024-03-22T10:14:07;101266.69;;;20.17;46.75
23427;BME280;41148;45.420;10.952;2024-03-22T10:16:37;101258.66;;;20.16;46.15
23427;BME280;41148;45.420;10.952;2024-03-22T10:19:06;101260.94;;;20.08;47.37
23427;BME280;41148;45.420;10.952;2024-03-22T10:24:33;101249.00;;;19.96;47.25
23427;BME280;41148;45.420;10.952;2024-03-22T10:26:59;101245.06;;;20.01;45.72
23427;BME280;41148;45.420;10.952;2024-03-22T10:29:25;101241.41;;;20.02;45.51
23427;BME280;41148;45.420;10.952;2024-03-22T10:31:52;101243.47;;;20.13;45.46
23427;BME280;41148;45.420;10.952;2024-03-22T10:34:20;101238.25;;;20.10;43.36
23427;BME280;41148;45.420;10.952;2024-03-22T10:36:48;101242.38;;;19.86;42.68
23427;BME280;41148;45.420;10.952;2024-03-22T10:39:18;101232.97;;;19.77;42.66
23427;BME280;41148;45.420;10.952;2024-03-22T10:41:47;101240.34;;;20.05;42.85
23427;BME280;41148;45.420;10.952;2024-03-22T10:44:14;101230.81;;;20.14;43.25
23427;BME280;41148;45.420;10.952;2024-03-22T10:46:44;101234.47;;;20.28;41.85
23427;BME280;41148;45.420;10.952;2024-03-22T10:49:20;101228.41;;;20.39;41.71
23427;BME280;41148;45.420;10.952;2024-03-22T10:51:48;101233.06;;;20.21;42.18
23427;BME280;41148;45.420;10.952;2024-03-22T10:54:17;101228.75;;;20.33;41.65
23427;BME280;41148;45.420;10.952;2024-03-22T10:56:45;101222.66;;;20.29;40.63
23427;BME280;41148;45.420;10.952;2024-03-22T10:59:24;101225.38;;;20.29;41.11
23427;BME280;41148;45.420;10.952;2024-03-22T11:01:50;101219.91;;;20.15;40.44
23427;BME280;41148;45.420;10.952;2024-03-22T11:04:17;101217.34;;;20.28;39.27
23427;BME280;41148;45.420;10.952;2024-03-22T11:06:47;101216.94;;;20.20;39.73
23427;BME280;41148;45.420;10.952;2024-03-22T11:09:26;101213.28;;;20.21;38.85
23427;BME280;41148;45.420;10.952;2024-03-22T11:11:53;101201.03;;;20.29;39.20
23427;BME280;41148;45.420;10.952;2024-03-22T11:14:20;101201.06;;;20.14;38.63
23427;BME280;41148;45.420;10.952;2024-03-22T11:16:49;101197.00;;;20.37;38.76
23427;BME280;41148;45.420;10.952;2024-03-22T11:19:16;101188.88;;;20.37;38.79
23427;BME280;41148;45.420;10.952;2024-03-22T11:24:41;101183.88;;;20.45;36.56
23427;BME280;41148;45.420;10.952;2024-03-22T11:27:07;101179.59;;;20.41;35.35
23427;BME280;41148;45.420;10.952;2024-03-22T11:29:33;101170.69;;;20.39;36.83
23427;BME280;41148;45.420;10.952;2024-03-22T11:32:00;101169.44;;;20.30;37.57
23427;BME280;41148;45.420;10.952;2024-03-22T11:34:26;101171.84;;;20.35;37.91
23427;BME280;41148;45.420;10.952;2024-03-22T11:36:53;101165.66;;;20.33;37.27
23427;BME280;41148;45.420;10.952;2024-03-22T11:39:20;101161.13;;;20.33;36.83
23427;BME280;41148;45.420;10.952;2024-03-22T11:41:48;101157.91;;;20.26;37.81
23427;BME280;41148;45.420;10.952;2024-03-22T11:44:33;101158.03;;;20.39;38.28
23427;BME280;41148;45.420;10.952;2024-03-22T11:47:03;101152.63;;;20.39;38.16
23427;BME280;41148;45.420;10.952;2024-03-22T11:49:30;101155.34;;;20.39;37.34
23427;BME280;41148;45.420;10.952;2024-03-22T11:51:56;101146.34;;;20.39;37.07
23427;BME280;41148;45.420;10.952;2024-03-22T11:54:24;101142.56;;;20.41;38.12
23427;BME280;41148;45.420;10.952;2024-03-22T11:56:51;101138.13;;;20.40;38.00
23427;BME280;41148;45.420;10.952;2024-03-22T11:59:21;101138.25;;;20.53;38.51
23427;BME280;41148;45.420;10.952;2024-03-22T12:01:47;101129.28;;;20.67;37.50
23427;BME280;41148;45.420;10.952;2024-03-22T12:04:13;101131.50;;;20.60;38.11
23427;BME280;41148;45.420;10.952;2024-03-22T12:06:46;101123.56;;;20.71;38.69
23427;BME280;41148;45.420;10.952;2024-03-22T12:09:13;101123.84;;;20.81;38.66
23427;BME280;41148;45.420;10.952;2024-03-22T12:11:40;101120.66;;;20.74;37.56
23427;BME280;41148;45.420;10.952;2024-03-22T12:14:06;101111.69;;;20.88;37.86
23427;BME280;41148;45.420;10.952;2024-03-22T12:16:33;101117.19;;;20.72;37.69
23427;BME280;41148;45.420;10.952;2024-03-22T12:19:00;101111.69;;;20.88;37.12
23427;BME280;41148;45.420;10.952;2024-03-22T12:21:26;101104.25;;;20.77;36.71
23427;BME280;41148;45.420;10.952;2024-03-22T12:23:53;101110.13;;;20.84;37.12
23427;BME280;41148;45.420;10.952;2024-03-22T12:26:20;101112.16;;;20.80;37.37
23427;BME280;41148;45.420;10.952;2024-03-22T12:28:46;101109.94;;;20.87;36.96
23427;BME280;41148;45.420;10.952;2024-03-22T12:31:13;101096.28;;;20.74;36.47
23427;BME280;41148;45.420;10.952;2024-03-22T12:33:39;101092.75;;;20.60;36.40
23427;BME280;41148;45.420;10.952;2024-03-22T12:36:06;101089.28;;;20.57;37.28
23427;BME280;41148;45.420;10.952;2024-03-22T12:38:32;101085.19;;;20.65;36.79
23427;BME280;41148;45.420;10.952;2024-03-22T12:40:58;101087.88;;;20.65;37.07
23427;BME280;41148;45.420;10.952;2024-03-22T12:43:25;101081.31;;;20.69;37.09